Time;durP1;ratioP1;P1;durP2;ratioP2;P2;SDS_P1;SDS_P2;PMS_P1;PMS_P2;Temp;Humidity;BMP_temperature;BMP_pressure;BME280_temperature;BME280_humidity;BME280_pressure;Samples;Min_cycle;Max_cycle;Signal;HPM_P1;HPM_P2
2021/07/03 00:01:43;;;;;;;8.75;4.57;;;;;;;17.61;74.64;99463.69;5109545;28;19924;-71
2021/07/03 00:04:12;;;;;;;7.32;4.70;;;;;;;17.73;74.50;99463.28;5090547;28;20134;-71
2021/07/03 00:06:41;;;;;;;6.60;5.07;;;;;;;17.88;74.37;99457.59;5098333;28;20119;-71
2021/07/03 00:09:10;;;;;;;7.87;5.20;;;;;;;17.99;73.81;99456.34;5107170;28;20119;-71
2021/07/03 00:11:41;;;;;;;6.82;5.00;;;;;;;17.92;74.08;99454.03;5101357;28;20050;-71
2021/07/03 00:14:11;;;;;;;7.05;4.75;;;;;;;18.04;74.27;99462.19;5099250;28;20474;-71
2021/07/03 00:16:40;;;;;;;5.97;4.75;;;;;;;18.17;73.92;99461.75;5090348;28;20110;-71
2021/07/03 00:19:10;;;;;;;7.32;5.22;;;;;;;18.28;73.56;99463.09;5109498;28;20043;-70
2021/07/03 00:21:39;;;;;;;8.55;4.95;;;;;;;18.40;73.44;99462.66;5112959;28;20039;-71
2021/07/03 00:24:08;;;;;;;7.38;4.90;;;;;;;18.50;73.09;99458.84;5098121;28;20067;-71
2021/07/03 00:26:37;;;;;;;6.78;4.65;;;;;;;18.60;72.83;99455.03;5095409;28;20042;-71
2021/07/03 00:29:07;;;;;;;6.23;4.67;;;;;;;18.68;72.46;99452.16;5105764;28;20044;-71
2021/07/03 00:31:36;;;;;;;6.15;4.80;;;;;;;18.68;72.43;99457.34;5107876;28;20288;-71
2021/07/03 00:34:05;;;;;;;6.00;4.30;;;;;;;18.67;72.22;99447.88;5109112;28;20134;-71
2021/07/03 00:36:34;;;;;;;7.28;4.50;;;;;;;18.76;72.04;99451.88;5095307;28;20036;-71
2021/07/03 00:39:04;;;;;;;5.60;4.43;;;;;;;18.78;71.86;99452.66;5105035;28;20071;-71
2021/07/03 00:41:33;;;;;;;6.32;4.47;;;;;;;18.86;71.39;99455.81;5108956;28;20451;-71
2021/07/03 00:44:02;;;;;;;5.65;4.03;;;;;;;18.84;71.37;99452.41;5097794;28;20096;-71
2021/07/03 00:46:33;;;;;;;5.30;4.37;;;;;;;18.88;71.14;99448.84;5108614;28;20047;-71
2021/07/03 00:49:02;;;;;;;6.30;4.50;;;;;;;18.84;71.12;99452.41;5105296;28;20696;-71
2021/07/03 00:51:34;;;;;;;5.82;4.20;;;;;;;18.83;71.09;99458.50;5103292;28;20047;-71
2021/07/03 00:54:03;;;;;;;5.60;4.40;;;;;;;18.85;70.84;99454.13;5104682;28;20618;-70
2021/07/03 00:56:32;;;;;;;5.90;4.43;;;;;;;18.88;70.90;99454.84;5108130;28;20479;-71
2021/07/03 00:59:01;;;;;;;5.53;4.30;;;;;;;18.81;71.00;99452.56;5110498;28;20036;-71
2021/07/03 01:01:32;;;;;;;6.57;4.55;;;;;;;18.75;71.25;99458.78;5115233;27;20042;-70
2021/07/03 01:04:01;;;;;;;6.03;4.60;;;;;;;18.68;71.59;99447.84;5099545;28;20367;-71
2021/07/03 01:06:32;;;;;;;6.32;4.47;;;;;;;18.66;71.79;99451.38;5094297;28;20083;-70
2021/07/03 01:09:04;;;;;;;6.30;4.22;;;;;;;18.65;71.82;99453.13;5109699;27;20486;-71
2021/07/03 01:11:33;;;;;;;6.10;4.50;;;;;;;18.59;71.83;99453.38;5108592;28;20040;-73
2021/07/03 01:14:03;;;;;;;6.10;4.15;;;;;;;18.53;71.94;99445.81;5094774;28;20118;-70
2021/07/03 01:16:35;;;;;;;7.25;4.30;;;;;;;18.55;72.30;99446.59;5096779;28;20040;-70
2021/07/03 01:19:05;;;;;;;5.30;3.88;;;;;;;18.58;72.30;99436.16;5091910;28;20036;-71
2021/07/03 01:21:34;;;;;;;5.65;4.38;;;;;;;18.57;72.21;99449.97;5101146;28;20114;-72
2021/07/03 01:24:07;;;;;;;5.93;4.18;;;;;;;18.50;72.41;99453.69;5078276;28;20052;-71
2021/07/03 01:26:42;;;;;;;6.18;4.50;;;;;;;18.45;72.72;99445.22;5086192;28;20127;-71
2021/07/03 01:29:15;;;;;;;;;;;;;;;18.44;72.72;99443.53;5079453;28;20427;-71
2021/07/03 01:31:46;;;;;;;7.63;4.70;;;;;;;18.37;72.85;99442.06;5095992;28;19947;-70
2021/07/03 01:34:18;;;;;;;5.65;4.10;;;;;;;18.42;72.80;99449.66;5079080;28;20047;-70
2021/07/03 01:36:47;;;;;;;5.93;4.30;;;;;;;18.41;72.87;99446.22;5082010;28;20039;-70
2021/07/03 01:39:18;;;;;;;4.70;3.47;;;;;;;18.39;73.09;99445.44;5089245;28;20032;-71
2021/07/03 01:41:47;;;;;;;5.13;3.75;;;;;;;18.46;72.94;99446.94;5098379;28;20531;-70
2021/07/03 01:44:23;;;;;;;5.53;4.05;;;;;;;18.55;72.78;99451.75;5108314;28;20090;-70
2021/07/03 01:46:55;;;;;;;6.20;3.95;;;;;;;18.63;72.82;99449.75;5093044;28;20078;-70
2021/07/03 01:49:28;;;;;;;5.30;4.07;;;;;;;18.69;72.54;99452.09;5095813;27;20040;-71
2021/07/03 01:51:57;;;;;;;5.20;3.80;;;;;;;18.60;72.58;99444.69;5087433;28;20089;-71
2021/07/03 01:54:30;;;;;;;5.40;3.72;;;;;;;18.65;72.56;99442.78;5091562;28;20044;-71
2021/07/03 01:57:05;;;;;;;5.15;3.50;;;;;;;18.72;72.21;99443.38;5086623;28;20440;-70
2021/07/03 02:00:01;;;;;;;5.60;3.72;;;;;;;18.64;72.60;99446.25;5059583;28;20550;-71
2021/07/03 02:02:32;;;;;;;5.07;3.63;;;;;;;18.64;72.68;99451.41;5097553;28;20055;-74
2021/07/03 02:05:04;;;;;;;5.15;3.70;;;;;;;18.70;72.48;99446.03;5096231;28;20052;-71
2021/07/03 02:07:33;;;;;;;5.47;3.58;;;;;;;18.77;71.93;99445.78;5108437;28;20044;-70
2021/07/03 02:10:05;;;;;;;5.38;3.72;;;;;;;18.87;71.68;99452.31;5095405;28;20448;-70
2021/07/03 02:12:35;;;;;;;5.07;3.33;;;;;;;18.89;71.35;99450.50;5091026;28;20044;-68
2021/07/03 02:15:15;;;;;;;5.72;3.67;;;;;;;18.91;71.08;99448.72;5095120;28;20462;-70
2021/07/03 02:17:53;;;;;;;5.00;3.42;;;;;;;18.96;71.12;99457.13;5093179;28;20039;-70
2021/07/03 02:20:24;;;;;;;4.70;3.42;;;;;;;18.92;70.88;99455.56;5093941;28;20044;-71
2021/07/03 02:23:10;;;;;;;5.38;3.65;;;;;;;18.90;70.86;99449.63;5095105;28;20063;-68
2021/07/03 02:25:44;;;;;;;7.00;3.97;;;;;;;18.98;70.84;99460.53;5093706;28;20555;-71
2021/07/03 02:28:18;;;;;;;6.70;4.55;;;;;;;18.97;70.69;99461.41;5086908;28;20143;-70
2021/07/03 02:30:55;;;;;;;6.10;4.22;;;;;;;18.97;70.77;99462.25;5108023;28;20040;-71
2021/07/03 02:33:24;;;;;;;6.75;4.45;;;;;;;18.97;70.78;99458.81;5078467;28;20109;-70
2021/07/03 02:35:57;;;;;;;6.85;4.20;;;;;;;18.99;70.71;99457.00;5074662;28;20076;-71
2021/07/03 02:38:29;;;;;;;6.88;4.55;;;;;;;19.03;70.62;99463.75;5097969;28;20105;-71
2021/07/03 02:41:01;;;;;;;8.20;4.95;;;;;;;19.04;70.63;99455.94;5093200;28;20130;-73
2021/07/03 02:43:31;;;;;;;6.40;4.85;;;;;;;19.04;70.69;99457.69;5084654;28;20036;-70
2021/07/03 02:46:07;;;;;;;7.18;4.88;;;;;;;19.02;70.69;99456.91;5092836;28;20084;-71
2021/07/03 02:48:36;;;;;;;6.88;4.95;;;;;;;19.01;70.81;99462.97;5096220;28;20115;-71
2021/07/03 02:51:05;;;;;;;6.93;5.07;;;;;;;19.02;70.89;99462.06;5086706;28;20101;-71
2021/07/03 02:53:34;;;;;;;10.15;5.38;;;;;;;19.04;70.89;99460.28;5078284;28;20379;-71
2021/07/03 02:56:05;;;;;;;7.22;4.88;;;;;;;18.99;70.94;99464.78;5094556;28;20047;-70
2021/07/03 02:58:37;;;;;;;7.78;5.00;;;;;;;18.88;71.50;99454.00;5091803;28;20062;-70
2021/07/03 03:01:08;;;;;;;7.03;4.80;;;;;;;18.81;71.56;99457.72;5099347;27;20042;-71
2021/07/03 03:03:38;;;;;;;6.95;4.70;;;;;;;18.71;72.01;99462.41;5103324;28;20055;-70
2021/07/03 03:06:08;;;;;;;6.47;5.03;;;;;;;18.60;72.60;99460.19;5090911;28;20740;-70
2021/07/03 03:08:37;;;;;;;7.53;4.93;;;;;;;18.48;72.96;99458.06;5106478;27;20082;-71
2021/07/03 03:11:11;;;;;;;7.90;5.00;;;;;;;18.34;73.20;99470.59;5091757;28;20054;-71
2021/07/03 03:13:41;;;;;;;7.03;4.88;;;;;;;18.30;73.49;99461.28;5110384;27;20064;-71
2021/07/03 03:16:13;;;;;;;8.85;5.45;;;;;;;18.22;73.86;99468.44;5093091;28;20500;-68
2021/07/03 03:18:43;;;;;;;8.77;5.47;;;;;;;18.09;74.35;99464.63;5092327;28;20131;-71
2021/07/03 03:21:13;;;;;;;9.10;5.82;;;;;;;18.11;74.57;99469.72;5089674;28;20047;-70
2021/07/03 03:23:45;;;;;;;8.27;5.40;;;;;;;18.07;74.84;99466.41;5092729;28;20124;-70
2021/07/03 03:26:16;;;;;;;9.05;6.22;;;;;;;18.11;74.87;99465.41;5094901;28;20040;-71
2021/07/03 03:28:46;;;;;;;8.40;5.53;;;;;;;18.24;74.85;99466.66;5104847;27;20064;-71
2021/07/03 03:31:17;;;;;;;7.00;5.05;;;;;;;18.32;74.60;99472.41;5084584;28;20383;-70
2021/07/03 03:33:50;;;;;;;9.77;5.45;;;;;;;18.33;74.74;99466.31;5092619;28;20050;-71
2021/07/03 03:36:20;;;;;;;7.40;5.55;;;;;;;18.44;74.77;99453.88;5086055;28;20509;-71
2021/07/03 03:38:51;;;;;;;7.70;5.07;;;;;;;18.55;74.52;99451.75;5087334;28;20054;-71
2021/07/03 03:41:23;;;;;;;8.93;5.90;;;;;;;18.63;74.28;99449.75;5107244;28;20040;-71
2021/07/03 03:43:53;;;;;;;9.02;5.70;;;;;;;18.72;74.27;99451.13;5088875;28;20165;-71
2021/07/03 03:46:27;;;;;;;8.70;5.85;;;;;;;18.81;73.75;99452.56;5089201;28;20040;-71
2021/07/03 03:48:57;;;;;;;8.05;5.60;;;;;;;18.77;73.63;99445.78;5082269;28;20037;-71
2021/07/03 03:51:29;;;;;;;7.18;5.30;;;;;;;18.81;73.44;99447.38;5095035;28;20047;-70
2021/07/03 03:53:58;;;;;;;7.57;5.60;;;;;;;19.02;72.74;99451.72;5093249;28;20052;-71
2021/07/03 03:56:30;;;;;;;6.95;5.18;;;;;;;19.08;72.28;99456.66;5092537;28;20079;-70
2021/07/03 03:59:01;;;;;;;7.65;5.00;;;;;;;19.06;71.94;99453.28;5092616;28;20079;-70
2021/07/03 04:01:32;;;;;;;7.43;5.28;;;;;;;19.12;71.53;99447.91;5094253;28;20036;-70
2021/07/03 04:04:03;;;;;;;8.10;5.38;;;;;;;19.32;70.98;99445.34;5079284;28;20123;-70
2021/07/03 04:06:32;;;;;;;8.45;5.93;;;;;;;19.38;70.39;99451.19;5082441;28;20047;-70
2021/07/03 04:09:01;;;;;;;6.97;5.10;;;;;;;19.44;70.08;99444.88;5081197;28;20049;-70
2021/07/03 04:11:35;;;;;;;8.20;5.47;;;;;;;19.50;69.90;99448.97;5072649;28;20483;-71
2021/07/03 04:14:04;;;;;;;8.23;6.18;;;;;;;19.62;69.71;99454.50;5072952;28;20556;-71
2021/07/03 04:16:33;;;;;;;11.18;6.72;;;;;;;19.72;69.10;99452.38;5090979;28;20036;-70
2021/07/03 04:19:02;;;;;;;8.15;6.15;;;;;;;19.70;68.75;99447.25;5091919;28;20056;-70
2021/07/03 04:21:31;;;;;;;11.57;6.53;;;;;;;19.52;68.83;99458.38;5105009;28;20494;-70
2021/07/03 04:24:00;;;;;;;8.23;6.03;;;;;;;19.64;68.79;99457.03;5098003;28;20032;-70
2021/07/03 04:26:30;;;;;;;9.32;6.47;;;;;;;19.74;68.76;99447.97;5100898;28;20040;-70
2021/07/03 04:29:01;;;;;;;8.63;5.85;;;;;;;19.88;68.75;99449.09;5092166;28;20032;-70
2021/07/03 04:31:30;;;;;;;8.98;6.40;;;;;;;19.81;68.72;99445.06;5091395;28;20036;-72
2021/07/03 04:33:59;;;;;;;9.02;6.75;;;;;;;19.70;69.02;99447.25;5078193;28;20111;-70
2021/07/03 04:36:29;;;;;;;8.50;5.88;;;;;;;19.81;69.21;99450.25;5084088;28;20067;-70
2021/07/03 04:38:58;;;;;;;15.45;6.57;;;;;;;19.94;68.83;99446.22;5090003;28;20047;-70
2021/07/03 04:41:28;;;;;;;7.95;6.43;;;;;;;20.19;68.25;99442.56;5082287;28;20450;-70
2021/07/03 04:43:58;;;;;;;9.23;6.47;;;;;;;20.25;67.76;99442.38;5084369;28;20066;-70
2021/07/03 04:46:29;;;;;;;9.73;6.75;;;;;;;20.28;67.68;99440.47;5093553;28;20040;-72
2021/07/03 04:48:58;;;;;;;9.45;6.10;;;;;;;20.46;67.57;99444.00;5088005;28;20493;-70
2021/07/03 04:51:27;;;;;;;9.52;7.03;;;;;;;20.62;66.91;99443.25;5098634;28;20469;-70
2021/07/03 04:53:56;;;;;;;8.38;6.07;;;;;;;20.62;66.69;99439.78;5089980;28;20066;-71
2021/07/03 04:56:25;;;;;;;10.82;6.72;;;;;;;20.91;66.35;99436.72;5086080;28;20044;-72
2021/07/03 04:58:55;;;;;;;10.80;6.93;;;;;;;20.81;66.10;99440.63;5090460;28;20046;-70
2021/07/03 05:01:28;;;;;;;9.77;6.15;;;;;;;20.88;65.70;99447.22;5093045;28;20051;-70
2021/07/03 05:03:57;;;;;;;9.73;6.03;;;;;;;21.05;65.09;99439.53;5094398;28;20058;-70
2021/07/03 05:06:26;;;;;;;9.48;5.85;;;;;;;21.17;64.83;99443.28;5085632;28;20545;-70
2021/07/03 05:08:55;;;;;;;11.20;6.22;;;;;;;21.41;64.57;99441.28;5090140;28;20040;-70
2021/07/03 05:11:24;;;;;;;7.75;5.82;;;;;;;21.53;64.46;99446.72;5077972;28;20029;-70
2021/07/03 05:13:53;;;;;;;7.95;5.75;;;;;;;21.84;63.97;99443.44;5091501;28;20040;-70
2021/07/03 05:16:22;;;;;;;8.88;5.55;;;;;;;21.90;63.35;99448.38;5092443;28;20105;-70
2021/07/03 05:18:52;;;;;;;;;;;;;;;21.83;62.69;99446.97;5091989;28;20467;-70
2021/07/03 05:21:22;;;;;;;8.35;5.65;;;;;;;21.69;62.20;99452.00;5099253;28;19952;-69
2021/07/03 05:23:51;;;;;;;8.05;6.00;;;;;;;21.52;61.52;99459.78;5090088;28;20518;-70
2021/07/03 05:26:20;;;;;;;10.45;5.90;;;;;;;21.56;61.72;99462.16;5094812;28;20504;-69
2021/07/03 05:28:49;;;;;;;8.63;5.63;;;;;;;21.49;61.39;99465.97;5094700;28;20093;-70
2021/07/03 05:31:18;;;;;;;9.13;6.03;;;;;;;21.49;61.06;99459.94;5091999;28;20068;-69
2021/07/03 05:33:47;;;;;;;7.90;5.85;;;;;;;21.38;61.23;99458.69;5092146;28;20441;-70
2021/07/03 05:36:18;;;;;;;8.38;5.97;;;;;;;21.46;61.44;99454.88;5077079;28;20118;-70
2021/07/03 05:38:48;;;;;;;8.35;5.97;;;;;;;21.75;60.84;99467.28;5089353;28;20036;-70
2021/07/03 05:41:18;;;;;;;8.35;5.72;;;;;;;22.07;60.28;99463.94;5096579;28;20035;-71
2021/07/03 05:43:48;;;;;;;8.45;5.25;;;;;;;22.49;59.55;99456.50;5091656;28;20032;-70
2021/07/03 05:46:17;;;;;;;9.80;6.28;;;;;;;22.88;58.74;99463.16;5094680;28;20063;-70
2021/07/03 05:48:46;;;;;;;11.38;6.18;;;;;;;23.06;58.70;99462.16;5094176;28;20125;-70
2021/07/03 05:51:15;;;;;;;8.20;5.88;;;;;;;23.29;57.32;99465.16;5094239;28;20120;-70
2021/07/03 05:53:45;;;;;;;9.10;5.70;;;;;;;23.48;56.55;99465.00;5090207;28;20045;-71
2021/07/03 05:56:14;;;;;;;9.23;6.43;;;;;;;23.62;56.29;99466.78;5085754;28;20520;-69
2021/07/03 05:58:43;;;;;;;9.52;5.25;;;;;;;23.72;55.49;99467.94;5091737;28;20056;-70
2021/07/03 06:01:12;;;;;;;8.32;5.82;;;;;;;23.84;55.29;99469.84;5086544;28;20040;-69
2021/07/03 06:03:41;;;;;;;9.13;5.50;;;;;;;23.93;54.77;99464.94;5083144;28;20064;-69
2021/07/03 06:06:11;;;;;;;7.82;5.82;;;;;;;24.02;54.71;99469.59;5090042;28;20104;-73
2021/07/03 06:08:40;;;;;;;8.73;6.15;;;;;;;24.09;54.58;99464.06;5093138;28;20127;-69
2021/07/03 06:11:11;;;;;;;10.18;6.25;;;;;;;24.15;54.34;99468.91;5099265;28;20489;-70
2021/07/03 06:13:41;;;;;;;8.35;5.90;;;;;;;24.08;53.71;99459.78;5099517;28;20454;-70
2021/07/03 06:16:10;;;;;;;8.82;6.00;;;;;;;24.27;53.98;99470.78;5101299;28;20063;-71
2021/07/03 06:18:39;;;;;;;8.77;5.70;;;;;;;24.04;53.54;99469.53;5092682;28;20089;-69
2021/07/03 06:21:08;;;;;;;8.32;5.90;;;;;;;23.96;53.90;99466.53;5080087;28;20114;-70
2021/07/03 06:23:37;;;;;;;7.35;5.05;;;;;;;23.90;54.23;99475.53;5085777;28;20131;-70
2021/07/03 06:26:06;;;;;;;8.98;5.95;;;;;;;23.73;54.04;99472.25;5086904;28;20052;-70
2021/07/03 06:28:36;;;;;;;6.85;4.97;;;;;;;23.84;54.21;99472.47;5088539;28;20039;-71
2021/07/03 06:31:05;;;;;;;9.10;6.03;;;;;;;23.82;54.27;99480.38;5083913;28;20048;-69
2021/07/03 06:33:34;;;;;;;7.93;5.32;;;;;;;23.68;54.02;99477.69;5092064;28;20131;-69
2021/07/03 06:36:04;;;;;;;7.95;5.97;;;;;;;23.96;53.70;99487.38;5085353;28;20040;-70
2021/07/03 06:38:33;;;;;;;8.82;5.75;;;;;;;23.81;53.45;99489.13;5083082;28;20115;-70
2021/07/03 06:41:02;;;;;;;7.13;5.20;;;;;;;23.67;53.80;99491.69;5081902;28;20076;-70
2021/07/03 06:43:31;;;;;;;;;;;;;;;23.36;54.32;99483.91;5075181;28;20395;-70
2021/07/03 06:46:01;;;;;;;8.43;5.75;;;;;;;23.43;54.77;99481.78;5073432;28;20305;-72
2021/07/03 06:48:31;;;;;;;9.07;5.55;;;;;;;23.46;55.15;99487.69;5073191;28;20101;-71
2021/07/03 06:51:00;;;;;;;7.18;5.60;;;;;;;23.58;55.03;99483.53;5074124;28;20383;-71
2021/07/03 06:53:29;;;;;;;8.10;5.65;;;;;;;23.65;54.97;99485.72;5075295;28;20122;-70
2021/07/03 06:56:02;;;;;;;7.65;5.78;;;;;;;23.71;54.88;99476.69;5077936;28;20044;-70
2021/07/03 06:58:31;;;;;;;8.43;6.00;;;;;;;23.80;54.43;99479.59;5075214;28;20390;-71
2021/07/03 07:01:01;;;;;;;8.68;5.82;;;;;;;23.72;54.43;99483.59;5081191;28;20036;-71
2021/07/03 07:03:30;;;;;;;9.68;5.97;;;;;;;23.90;54.42;99485.97;5085436;28;20049;-71
2021/07/03 07:05:59;;;;;;;6.85;5.30;;;;;;;24.20;53.84;99479.91;5083654;28;20131;-71
2021/07/03 07:08:28;;;;;;;7.30;5.70;;;;;;;24.23;53.41;99488.41;5091265;28;20119;-71
2021/07/03 07:10:57;;;;;;;9.88;6.18;;;;;;;24.00;53.80;99489.72;5090775;28;20121;-70
2021/07/03 07:13:26;;;;;;;7.85;5.90;;;;;;;24.04;54.24;99479.97;5094164;28;20040;-70
2021/07/03 07:15:55;;;;;;;8.65;6.07;;;;;;;24.38;53.66;99481.41;5083454;28;20039;-70
2021/07/03 07:18:26;;;;;;;;;;;;;;;24.54;53.21;99490.00;5075693;28;20090;-72
2021/07/03 07:20:55;;;;;;;7.95;5.82;;;;;;;24.57;52.56;99490.66;5090368;28;20340;-74
2021/07/03 07:23:24;;;;;;;7.97;6.05;;;;;;;24.69;52.82;99483.84;5096931;28;20038;-64
2021/07/03 07:25:54;;;;;;;7.65;5.80;;;;;;;24.74;52.39;99492.22;5082832;28;20494;-64
2021/07/03 07:28:23;;;;;;;7.72;5.20;;;;;;;24.71;52.46;99497.66;5081222;28;20044;-64
2021/07/03 07:30:52;;;;;;;7.88;5.80;;;;;;;24.50;52.30;99493.72;5085598;28;20044;-64
2021/07/03 07:33:21;;;;;;;7.40;5.45;;;;;;;24.32;52.46;99494.84;5078127;28;20041;-64
2021/07/03 07:35:52;;;;;;;7.93;6.20;;;;;;;24.31;52.51;99493.16;5079998;28;20028;-64
2021/07/03 07:38:21;;;;;;;11.00;6.20;;;;;;;24.25;52.49;99488.31;5082543;28;20045;-64
2021/07/03 07:40:50;;;;;;;7.55;5.85;;;;;;;24.21;52.71;99499.88;5075331;28;20031;-65
2021/07/03 07:43:19;;;;;;;8.88;5.80;;;;;;;24.09;53.10;99500.59;5087586;28;20028;-64
2021/07/03 07:45:48;;;;;;;9.80;5.68;;;;;;;23.99;53.48;99503.69;5079610;28;20035;-64
2021/07/03 07:48:18;;;;;;;7.53;5.68;;;;;;;23.99;54.21;99503.69;5093582;28;20044;-64
2021/07/03 07:50:47;;;;;;;7.50;5.70;;;;;;;24.00;54.05;99494.94;5105124;28;20539;-66
2021/07/03 07:53:17;;;;;;;;;;;;;;;23.97;53.64;99499.50;5090515;28;20040;-67
2021/07/03 07:55:46;;;;;;;7.70;5.80;;;;;;;23.94;53.14;99505.75;5090438;28;19920;-69
2021/07/03 07:58:15;;;;;;;8.35;5.47;;;;;;;23.85;52.87;99501.03;5081785;28;20105;-66
2021/07/03 08:00:44;;;;;;;7.65;5.28;;;;;;;23.63;52.71;99498.00;5094105;28;20038;-66
2021/07/03 08:03:13;;;;;;;9.18;5.80;;;;;;;23.64;53.15;99510.09;5092491;28;20482;-66
2021/07/03 08:05:43;;;;;;;8.00;5.60;;;;;;;23.69;53.13;99508.06;5093418;28;20451;-66
2021/07/03 08:08:12;;;;;;;9.25;5.90;;;;;;;23.67;52.88;99507.31;5088680;28;20041;-65
2021/07/03 08:10:43;;;;;;;11.38;5.80;;;;;;;23.68;52.83;99503.75;5073182;28;20048;-64
2021/07/03 08:13:12;;;;;;;8.45;5.53;;;;;;;23.74;52.78;99505.19;5073334;28;20086;-66
2021/07/03 08:15:43;;;;;;;7.30;5.28;;;;;;;23.76;52.64;99498.97;5076699;28;20119;-66
2021/07/03 08:18:12;;;;;;;8.20;5.47;;;;;;;23.77;52.91;99502.41;5077217;28;20075;-64
2021/07/03 08:20:41;;;;;;;9.05;5.38;;;;;;;23.92;52.50;99498.94;5097383;28;20044;-65
2021/07/03 08:23:10;;;;;;;9.57;5.18;;;;;;;24.04;51.61;99495.63;5095532;28;20051;-65
2021/07/03 08:25:39;;;;;;;7.00;5.38;;;;;;;24.25;51.01;99493.53;5095694;28;20044;-67
2021/07/03 08:28:10;;;;;;;8.18;5.20;;;;;;;24.68;50.32;99495.22;5082918;28;20045;-65
2021/07/03 08:30:39;;;;;;;7.88;5.18;;;;;;;25.26;49.33;99493.31;5085992;28;20040;-66
2021/07/03 08:33:09;;;;;;;8.70;5.72;;;;;;;25.89;48.86;99501.38;5097274;28;20468;-65
2021/07/03 08:35:38;;;;;;;12.45;5.60;;;;;;;26.40;48.16;99496.22;5097573;28;20059;-66
2021/07/03 08:38:07;;;;;;;7.95;5.50;;;;;;;26.25;47.52;99492.84;5097152;28;20389;-66
2021/07/03 08:40:36;;;;;;;6.25;4.82;;;;;;;26.23;47.52;99494.75;5096080;28;20028;-66
2021/07/03 08:43:05;;;;;;;7.05;5.00;;;;;;;26.57;46.55;99491.50;5096114;28;20032;-65
2021/07/03 08:45:35;;;;;;;9.18;5.30;;;;;;;26.56;45.15;99491.63;5083428;28;20040;-67
2021/07/03 08:48:45;;;;;;;7.28;5.22;;;;;;;26.34;45.77;99491.41;4869761;22;20022;31
2021/07/03 09:00:47;;;;;;;8.00;5.30;;;;;;;25.75;47.10;99488.38;5186407;23;23102;-70
2021/07/03 09:03:19;;;;;;;8.73;5.50;;;;;;;25.71;47.19;99459.91;4896722;29;20044;-71
2021/07/03 09:05:51;;;;;;;7.05;5.32;;;;;;;25.69;47.30;99491.41;4900499;29;20048;-70
2021/07/03 09:08:21;;;;;;;6.82;5.15;;;;;;;25.83;48.35;99482.63;4892802;29;20037;-71
2021/07/03 09:11:00;;;;;;;7.20;5.43;;;;;;;26.08;46.50;99480.06;4894129;29;20522;-70
2021/07/03 09:13:30;;;;;;;7.50;5.35;;;;;;;26.32;47.12;99483.66;4896790;29;20135;-70
2021/07/03 09:16:05;;;;;;;9.73;5.60;;;;;;;26.45;47.18;99475.78;4893552;29;20053;-69
2021/07/03 09:18:35;;;;;;;6.57;4.60;;;;;;;26.30;46.47;99475.06;4895267;29;20466;-70
2021/07/03 09:21:05;;;;;;;;;;;;;;;26.50;46.71;99471.09;4898879;29;20092;-70
2021/07/03 09:23:35;;;;;;;8.32;4.55;;;;;;;26.69;46.11;99475.88;4895259;29;19975;-70
2021/07/03 09:26:07;;;;;;;7.15;4.68;;;;;;;26.39;45.05;99482.31;4894728;29;20043;-70
2021/07/03 09:28:39;;;;;;;6.68;4.95;;;;;;;26.29;45.13;99478.66;4900290;29;20135;-70
2021/07/03 09:31:11;;;;;;;11.07;5.00;;;;;;;26.16;45.21;99477.78;4897563;29;20072;-69
2021/07/03 09:33:45;;;;;;;7.80;4.60;;;;;;;26.49;44.25;99444.06;4888821;29;20040;-69
2021/07/03 09:36:15;;;;;;;5.90;4.70;;;;;;;26.94;43.86;99460.16;4900460;29;20052;-69
2021/07/03 09:38:49;;;;;;;6.38;4.72;;;;;;;27.31;42.98;99453.91;4899479;29;20392;-68
2021/07/03 09:41:20;;;;;;;6.80;4.78;;;;;;;27.53;42.66;99459.28;4900877;29;20481;-69
2021/07/03 09:43:56;;;;;;;6.15;4.72;;;;;;;27.70;43.98;99456.25;4899885;29;20051;-69
2021/07/03 09:46:30;;;;;;;6.43;4.88;;;;;;;27.97;42.73;99447.28;4900772;29;20041;-68
2021/07/03 09:49:02;;;;;;;7.07;4.97;;;;;;;28.00;43.42;99447.06;4899787;29;20048;-69
2021/07/03 09:51:33;;;;;;;6.57;4.53;;;;;;;28.13;43.09;99442.53;4900509;29;20147;-69
2021/07/03 09:54:03;;;;;;;6.53;4.68;;;;;;;28.32;42.52;99437.56;4898595;29;20521;-69
2021/07/03 09:56:32;;;;;;;7.72;5.15;;;;;;;28.42;42.02;99428.00;4900796;29;20076;-68
2021/07/03 09:59:01;;;;;;;8.90;5.05;;;;;;;28.45;41.54;99425.16;4900477;29;20096;-69
2021/07/03 10:01:32;;;;;;;6.95;4.97;;;;;;;28.51;42.01;99428.13;4900258;29;20052;-69
2021/07/03 10:04:04;;;;;;;6.57;5.00;;;;;;;28.38;42.34;99423.97;4899503;29;20048;-69
2021/07/03 10:06:36;;;;;;;7.28;4.65;;;;;;;28.40;42.84;99419.41;4900281;29;20049;-69
2021/07/03 10:09:09;;;;;;;9.18;4.72;;;;;;;28.53;42.06;99425.38;4900559;29;20119;-69
2021/07/03 10:11:44;;;;;;;7.70;4.72;;;;;;;28.62;41.61;99419.44;4900462;29;20055;-70
2021/07/03 10:14:14;;;;;;;5.88;4.57;;;;;;;28.60;41.30;99410.00;4898013;29;20064;-69
2021/07/03 10:16:45;;;;;;;6.28;4.97;;;;;;;28.18;40.50;99414.16;4900102;29;20048;-69
2021/07/03 10:19:17;;;;;;;8.23;4.78;;;;;;;28.44;41.50;99410.34;4900310;29;20049;-69
2021/07/03 10:21:49;;;;;;;5.88;4.20;;;;;;;28.77;40.19;99417.41;4898727;29;20041;-70
2021/07/03 10:24:19;;;;;;;5.57;4.00;;;;;;;28.70;39.01;99401.25;4898606;29;20103;-70
2021/07/03 10:26:50;;;;;;;7.55;4.72;;;;;;;28.60;38.63;99400.34;4899195;29;20041;-69
2021/07/03 10:29:21;;;;;;;5.82;4.28;;;;;;;28.38;38.26;99400.31;4899898;29;20047;-69
2021/07/03 10:31:53;;;;;;;7.28;4.47;;;;;;;28.52;38.80;99402.69;4898724;29;20055;-69
2021/07/03 10:34:30;;;;;;;5.97;4.32;;;;;;;28.97;39.23;99404.31;4900390;29;20427;-70
2021/07/03 10:37:11;;;;;;;6.57;4.60;;;;;;;29.26;38.20;99403.78;4899124;29;20123;-70
2021/07/03 10:39:39;;;;;;;5.50;4.40;;;;;;;29.43;38.05;99400.59;4898454;29;20052;-70
2021/07/03 10:42:09;;;;;;;6.13;4.00;;;;;;;29.38;38.02;99395.72;4895535;29;20462;-69
2021/07/03 10:44:40;;;;;;;6.95;4.32;;;;;;;29.34;37.69;99398.72;4884745;29;20052;-69
2021/07/03 10:47:13;;;;;;;6.85;4.65;;;;;;;29.51;38.71;99395.53;4893152;29;20044;-69
2021/07/03 10:49:43;;;;;;;6.80;4.50;;;;;;;29.37;38.96;99401.13;4899782;29;20089;-69
2021/07/03 10:52:14;;;;;;;5.82;4.57;;;;;;;29.27;38.75;99400.19;4899470;29;20083;-69
2021/07/03 10:54:43;;;;;;;5.93;4.35;;;;;;;28.45;38.92;99368.22;4896911;29;20041;-68
2021/07/03 10:57:13;;;;;;;5.60;4.50;;;;;;;27.82;40.04;99384.50;4881838;29;20068;-68
2021/07/03 10:59:43;;;;;;;6.50;4.75;;;;;;;27.89;40.68;99380.47;4899218;29;20526;-69
2021/07/03 11:02:15;;;;;;;6.05;4.45;;;;;;;28.56;39.76;99377.84;4896982;29;20049;-69
2021/07/03 11:04:47;;;;;;;5.70;4.70;;;;;;;29.08;39.10;99379.81;4897060;29;20567;-68
2021/07/03 11:07:17;;;;;;;6.55;4.50;;;;;;;28.90;39.47;99373.41;4899372;29;20075;-69
2021/07/03 11:09:47;;;;;;;6.03;4.45;;;;;;;28.39;39.47;99370.47;4899786;29;20120;-69
2021/07/03 11:12:18;;;;;;;6.13;4.32;;;;;;;28.53;39.19;99368.44;4899173;29;20053;-69
2021/07/03 11:14:51;;;;;;;6.70;4.35;;;;;;;28.26;39.97;99364.53;4898286;29;20512;-68
2021/07/03 11:17:23;;;;;;;8.65;4.60;;;;;;;28.84;39.45;99376.53;4897011;29;20044;-68
2021/07/03 11:19:54;;;;;;;6.13;4.70;;;;;;;29.26;38.73;99361.69;4897448;29;20443;-70
2021/07/03 11:22:25;;;;;;;5.75;4.20;;;;;;;29.58;38.61;99357.22;4898983;29;20056;-70
2021/07/03 11:24:56;;;;;;;8.68;4.07;;;;;;;29.71;37.47;99363.13;4896841;29;20055;-70
2021/07/03 11:27:27;;;;;;;5.65;3.95;;;;;;;29.96;35.92;99351.38;4898095;29;20059;-70
2021/07/03 11:29:57;;;;;;;5.85;4.10;;;;;;;29.97;35.18;99353.88;4899174;29;20041;-68
2021/07/03 11:32:28;;;;;;;6.32;4.00;;;;;;;30.05;35.68;99351.41;4898949;29;20041;-70
2021/07/03 11:34:59;;;;;;;6.30;4.03;;;;;;;30.07;36.09;99351.28;4897560;29;20081;-68
2021/07/03 11:37:30;;;;;;;7.55;4.28;;;;;;;30.29;37.16;99359.84;4897593;29;20060;-69
2021/07/03 11:40:00;;;;;;;5.03;3.72;;;;;;;29.96;37.37;99344.31;4898956;29;20047;-70
2021/07/03 11:42:31;;;;;;;8.18;4.45;;;;;;;30.15;37.41;99362.00;4898725;29;20052;-72
2021/07/03 11:45:00;;;;;;;6.47;4.38;;;;;;;29.83;37.43;99352.41;4896755;29;20045;-69
2021/07/03 11:47:37;;;;;;;5.72;4.15;;;;;;;29.25;39.11;99360.84;4896991;29;20049;-71
2021/07/03 11:50:09;;;;;;;5.53;3.80;;;;;;;29.07;39.14;99351.84;4898731;29;20048;-70
2021/07/03 11:52:47;;;;;;;5.88;4.20;;;;;;;29.06;39.33;99356.25;4899177;29;20139;-70
2021/07/03 11:55:18;;;;;;;4.82;3.83;;;;;;;29.64;39.20;99348.81;4897533;29;20053;-70
2021/07/03 11:57:49;;;;;;;6.38;4.20;;;;;;;30.24;38.22;99351.50;4898426;29;20525;-70
2021/07/03 12:00:21;;;;;;;5.60;4.05;;;;;;;30.69;37.19;99341.38;4898744;29;20474;-71